createdAt,value
2019-04-27T00:00:59.871Z,3.00
2019-04-27T00:03:48.128Z,2.60
2019-04-27T00:06:20.075Z,3.17
2019-04-27T00:08:53.534Z,3.20
2019-04-27T00:11:28.591Z,3.15
2019-04-27T00:14:00.641Z,2.92
2019-04-27T00:16:46.903Z,3.05
2019-04-27T00:19:31.678Z,3.05
2019-04-27T00:22:04.013Z,2.75
2019-04-27T00:24:35.829Z,2.85
2019-04-27T00:27:06.825Z,2.90
2019-04-27T00:29:37.371Z,3.12
2019-04-27T00:32:07.755Z,2.77
2019-04-27T00:34:38.369Z,3.30
2019-04-27T00:37:10.367Z,3.50
2019-04-27T00:39:43.314Z,2.85
2019-04-27T00:42:14.304Z,3.45
2019-04-27T00:44:44.889Z,3.60
2019-04-27T00:47:15.251Z,2.85
2019-04-27T00:49:45.666Z,3.20
2019-04-27T00:52:16.111Z,3.85
2019-04-27T00:54:46.636Z,3.87
2019-04-27T00:57:20.042Z,3.33
2019-04-27T00:59:54.836Z,3.58
2019-04-27T01:02:33.170Z,3.33
2019-04-27T01:05:07.554Z,3.87
2019-04-27T01:07:37.940Z,3.35
2019-04-27T01:10:10.162Z,3.20
2019-04-27T01:12:42.990Z,3.37
2019-04-27T01:15:13.861Z,2.98
2019-04-27T01:17:44.353Z,3.35
2019-04-27T01:20:14.770Z,3.42
2019-04-27T01:22:45.146Z,3.40
2019-04-27T01:25:15.609Z,3.30
2019-04-27T01:27:53.455Z,3.00
2019-04-27T01:30:35.615Z,3.47
2019-04-27T01:33:06.869Z,3.37
2019-04-27T01:35:39.001Z,3.30
2019-04-27T01:38:09.862Z,3.20
2019-04-27T01:40:40.304Z,3.12
2019-04-27T01:43:10.728Z,3.27
2019-04-27T01:45:41.181Z,3.10
2019-04-27T01:48:22.884Z,3.05
2019-04-27T01:50:43.649Z,3.35
2019-04-27T01:53:14.073Z,3.45
2019-04-27T01:55:44.564Z,3.60
2019-04-27T01:58:15.041Z,3.67
2019-04-27T02:01:02.894Z,3.50
2019-04-27T02:03:34.923Z,3.10
2019-04-27T02:06:05.288Z,3.40
2019-04-27T02:08:35.696Z,3.20
2019-04-27T02:11:06.104Z,3.35
2019-04-27T02:13:36.471Z,3.02
2019-04-27T02:16:08.826Z,3.55
2019-04-27T02:18:40.019Z,3.30
2019-04-27T02:21:10.582Z,4.03
2019-04-27T02:23:40.939Z,3.55
2019-04-27T02:26:12.180Z,3.25
2019-04-27T02:28:44.127Z,3.08
2019-04-27T02:31:32.643Z,3.45
2019-04-27T02:34:04.666Z,3.25
2019-04-27T02:36:35.315Z,3.37
2019-04-27T02:39:09.489Z,3.05
2019-04-27T02:41:40.098Z,3.58
2019-04-27T02:44:15.222Z,3.52
2019-04-27T02:46:45.698Z,3.47
2019-04-27T02:49:16.088Z,3.27
2019-04-27T02:52:06.240Z,3.30
2019-04-27T02:54:36.602Z,3.83
2019-04-27T02:57:09.636Z,3.35
2019-04-27T02:59:40.743Z,3.50
2019-04-27T03:02:19.429Z,3.58
2019-04-27T03:04:49.960Z,3.55
2019-04-27T03:07:20.720Z,3.83
2019-04-27T03:09:51.504Z,3.62
2019-04-27T03:12:23.630Z,3.65
2019-04-27T03:14:59.574Z,3.60
2019-04-27T03:17:33.275Z,3.30
2019-04-27T03:20:13.037Z,3.42
2019-04-27T03:22:45.078Z,3.22
2019-04-27T03:25:20.153Z,4.17
2019-04-27T03:27:55.392Z,3.50
2019-04-27T03:30:25.829Z,3.65
2019-04-27T03:32:57.514Z,3.15
2019-04-27T03:35:32.147Z,3.83
2019-04-27T03:38:02.499Z,3.90
2019-04-27T03:40:33.208Z,3.55
2019-04-27T03:43:05.528Z,3.92
2019-04-27T03:45:36.012Z,3.08
2019-04-27T03:48:10.184Z,3.52
2019-04-27T03:50:42.922Z,3.60
2019-04-27T03:53:30.206Z,3.75
2019-04-27T03:56:10.148Z,3.40
2019-04-27T03:58:42.337Z,3.42
2019-04-27T04:01:12.777Z,3.70
2019-04-27T04:03:43.347Z,3.33
2019-04-27T04:06:13.851Z,4.08
2019-04-27T04:08:44.354Z,3.90
2019-04-27T04:11:16.447Z,3.70
2019-04-27T04:13:49.484Z,3.50
2019-04-27T04:16:24.129Z,3.58
2019-04-27T04:19:00.431Z,3.50
2019-04-27T04:21:30.132Z,3.72
2019-04-27T04:24:01.314Z,3.72
2019-04-27T04:26:32.684Z,3.45
2019-04-27T04:29:03.900Z,3.47
2019-04-27T04:31:34.376Z,3.83
2019-04-27T04:34:04.803Z,3.08
2019-04-27T04:36:35.388Z,3.35
2019-04-27T04:39:11.930Z,4.10
2019-04-27T04:41:43.591Z,3.80
2019-04-27T04:44:24.350Z,4.55
2019-04-27T04:47:00.348Z,3.70
2019-04-27T04:49:32.906Z,3.85
2019-04-27T04:52:03.397Z,3.98
2019-04-27T04:54:34.643Z,3.50
2019-04-27T04:57:05.014Z,4.05
2019-04-27T04:59:35.486Z,3.55
2019-04-27T05:02:05.928Z,3.80
2019-04-27T05:04:39.051Z,3.72
2019-04-27T05:07:11.878Z,3.85
2019-04-27T05:09:42.352Z,3.70
2019-04-27T05:12:12.752Z,3.70
2019-04-27T05:14:43.297Z,4.20
2019-04-27T05:17:13.687Z,3.72
2019-04-27T05:19:44.935Z,3.90
2019-04-27T05:22:16.221Z,4.55
2019-04-27T05:24:49.334Z,4.28
2019-04-27T05:27:19.854Z,4.50
2019-04-27T05:29:50.553Z,4.15
2019-04-27T05:32:22.757Z,4.00
2019-04-27T05:34:53.393Z,4.37
2019-04-27T05:37:28.596Z,4.22
2019-04-27T05:39:56.032Z,4.15
2019-04-27T05:42:26.415Z,3.50
2019-04-27T05:45:04.416Z,4.15
2019-04-27T05:47:48.387Z,4.03
2019-04-27T05:50:21.688Z,4.08
2019-04-27T05:52:49.816Z,4.40
2019-04-27T05:55:20.296Z,4.62
2019-04-27T05:57:50.673Z,4.53
2019-04-27T06:00:21.887Z,4.30
2019-04-27T06:02:52.361Z,5.10
2019-04-27T06:05:24.250Z,4.70
2019-04-27T06:07:54.673Z,4.90
2019-04-27T06:10:25.167Z,4.70
2019-04-27T06:12:56.460Z,5.03
2019-04-27T06:15:28.398Z,4.45
2019-04-27T06:17:59.649Z,4.60
2019-04-27T06:20:30.264Z,5.12
2019-04-27T06:23:00.794Z,4.12
2019-04-27T06:25:33.000Z,4.83
2019-04-27T06:28:03.467Z,4.40
2019-04-27T06:30:34.719Z,4.25
2019-04-27T06:33:05.467Z,4.17
2019-04-27T06:35:35.878Z,6.80
2019-04-27T06:38:06.337Z,4.95
2019-04-27T06:40:36.728Z,4.92
2019-04-27T06:43:08.605Z,5.08
2019-04-27T06:45:39.276Z,4.75
2019-04-27T06:48:09.743Z,5.37
2019-04-27T06:50:40.179Z,4.80
2019-04-27T06:53:10.578Z,4.53
2019-04-27T06:55:40.963Z,4.70
2019-04-27T06:58:11.368Z,4.55
2019-04-27T07:00:41.878Z,4.40
2019-04-27T07:03:12.268Z,4.95
2019-04-27T07:05:42.732Z,4.15
2019-04-27T07:08:14.599Z,4.33
2019-04-27T07:10:44.995Z,4.28
2019-04-27T07:13:15.481Z,4.50
2019-04-27T07:15:45.927Z,4.10
2019-04-27T07:18:18.544Z,4.05
2019-04-27T07:20:49.039Z,4.50
2019-04-27T07:23:20.981Z,4.42
2019-04-27T07:25:51.492Z,4.47
2019-04-27T07:28:21.963Z,4.78
2019-04-27T07:30:52.348Z,5.33
2019-04-27T07:33:22.834Z,4.00
2019-04-27T07:35:53.328Z,4.40
2019-04-27T07:38:23.759Z,4.05
2019-04-27T07:40:54.142Z,4.25
2019-04-27T07:43:26.201Z,3.58
2019-04-27T07:45:56.921Z,3.37
2019-04-27T07:48:28.539Z,3.12
2019-04-27T07:50:59.219Z,3.65
2019-04-27T07:53:29.683Z,3.27
2019-04-27T07:56:00.132Z,2.55
2019-04-27T07:58:30.610Z,3.00
2019-04-27T08:01:02.768Z,2.92
2019-04-27T08:03:34.880Z,3.20
2019-04-27T08:06:05.338Z,3.50
2019-04-27T08:08:35.747Z,3.40
2019-04-27T08:11:06.487Z,3.62
2019-04-27T08:13:36.864Z,3.65
2019-04-27T08:16:08.827Z,4.15
2019-04-27T08:18:39.665Z,4.25
2019-04-27T08:21:10.218Z,4.22
2019-04-27T08:23:42.151Z,5.00
2019-04-27T08:26:14.341Z,5.35
2019-04-27T08:28:48.640Z,3.65
2019-04-27T08:31:20.736Z,3.60
2019-04-27T08:33:51.139Z,3.90
2019-04-27T08:36:21.587Z,4.05
2019-04-27T08:38:52.121Z,4.60
2019-04-27T08:41:24.043Z,4.03
2019-04-27T08:43:54.659Z,4.45
2019-04-27T08:46:28.452Z,4.22
2019-04-27T08:48:58.937Z,4.17
2019-04-27T08:51:29.661Z,5.37
2019-04-27T08:54:00.097Z,4.33
2019-04-27T08:56:30.624Z,4.08
2019-04-27T08:59:02.575Z,3.87
2019-04-27T09:01:33.080Z,3.80
2019-04-27T09:04:03.456Z,3.67
2019-04-27T09:06:37.452Z,3.10
2019-04-27T09:09:22.449Z,3.37
2019-04-27T09:11:54.432Z,3.52
2019-04-27T09:14:32.353Z,3.67
2019-04-27T09:17:04.334Z,3.30
2019-04-27T09:19:36.263Z,3.05
2019-04-27T09:22:16.074Z,4.50
2019-04-27T09:24:40.332Z,2.65
2019-04-27T09:27:10.804Z,3.00
2019-04-27T09:29:41.234Z,2.70
2019-04-27T09:32:11.617Z,3.08
2019-04-27T09:34:42.056Z,3.00
2019-04-27T09:37:12.530Z,3.75
2019-04-27T09:39:46.061Z,3.25
2019-04-27T09:42:16.844Z,3.27
2019-04-27T09:44:47.622Z,3.10
2019-04-27T09:47:18.385Z,3.60
2019-04-27T09:49:48.827Z,2.83
2019-04-27T09:52:25.899Z,2.60
2019-04-27T09:54:51.393Z,1.90
2019-04-27T09:57:21.866Z,1.87
2019-04-27T09:59:52.243Z,2.02
2019-04-27T10:02:24.126Z,2.10
2019-04-27T10:04:58.907Z,1.87
2019-04-27T10:07:29.409Z,2.20
2019-04-27T10:09:59.778Z,2.22
2019-04-27T10:12:30.188Z,2.02
2019-04-27T10:15:00.565Z,2.40
2019-04-27T10:17:30.976Z,1.87
2019-04-27T10:20:01.377Z,2.10
2019-04-27T10:22:41.257Z,2.30
2019-04-27T10:25:06.323Z,2.35
2019-04-27T10:27:37.015Z,1.90
2019-04-27T10:30:08.972Z,1.80
2019-04-27T10:32:39.369Z,2.45
2019-04-27T10:35:09.815Z,2.20
2019-04-27T10:37:41.772Z,1.95
2019-04-27T10:40:13.674Z,2.10
2019-04-27T10:42:45.851Z,2.20
2019-04-27T10:45:17.638Z,4.22
2019-04-27T10:47:49.580Z,2.12
2019-04-27T10:50:21.812Z,2.08
2019-04-27T10:52:53.990Z,1.90
2019-04-27T10:55:26.132Z,2.02
2019-04-27T10:57:56.840Z,1.72
2019-04-27T11:00:36.690Z,1.85
2019-04-27T11:03:07.037Z,2.70
2019-04-27T11:05:46.018Z,3.17
2019-04-27T11:08:16.795Z,2.30
2019-04-27T11:10:47.262Z,2.42
2019-04-27T11:13:17.744Z,2.17
2019-04-27T11:15:49.591Z,2.10
2019-04-27T11:18:20.020Z,3.20
2019-04-27T11:20:51.870Z,2.22
2019-04-27T11:23:23.789Z,2.17
2019-04-27T11:25:54.201Z,1.70
2019-04-27T11:28:25.825Z,2.00
2019-04-27T11:30:56.405Z,2.17
2019-04-27T11:33:26.800Z,2.20
2019-04-27T11:36:04.290Z,1.85
2019-04-27T11:38:36.490Z,2.22
2019-04-27T11:41:07.631Z,2.25
2019-04-27T11:43:38.063Z,1.72
2019-04-27T11:46:08.527Z,1.40
2019-04-27T11:48:40.395Z,1.60
2019-04-27T11:51:11.057Z,1.87
2019-04-27T11:53:42.556Z,1.67
2019-04-27T11:56:12.998Z,1.87
2019-04-27T11:58:43.397Z,1.77
2019-04-27T12:01:13.770Z,1.77
2019-04-27T12:03:44.547Z,1.77
2019-04-27T12:06:15.796Z,2.20
2019-04-27T12:08:47.821Z,1.77
2019-04-27T12:11:18.220Z,1.98
2019-04-27T12:13:48.833Z,2.00
2019-04-27T12:16:19.356Z,1.60
2019-04-27T12:18:49.834Z,3.83
2019-04-27T12:21:20.488Z,1.95
2019-04-27T12:23:50.898Z,1.95
2019-04-27T12:26:25.986Z,1.80
2019-04-27T12:28:57.460Z,2.47
2019-04-27T12:31:29.434Z,2.15
2019-04-27T12:33:59.891Z,1.77
2019-04-27T12:36:30.279Z,1.77
2019-04-27T12:39:00.659Z,2.10
2019-04-27T12:41:31.264Z,2.20
2019-04-27T12:44:01.644Z,2.08
2019-04-27T12:46:32.050Z,1.70
2019-04-27T12:49:02.643Z,1.67
2019-04-27T12:51:33.104Z,1.70
2019-04-27T12:54:05.980Z,1.57
2019-04-27T12:56:51.912Z,1.70
2019-04-27T12:59:40.142Z,2.27
2019-04-27T13:02:10.819Z,1.82
2019-04-27T13:04:41.464Z,1.57
2019-04-27T13:07:11.860Z,1.55
2019-04-27T13:09:42.327Z,2.10
2019-04-27T13:12:12.715Z,1.70
2019-04-27T13:14:45.741Z,1.50
2019-04-27T13:17:16.473Z,1.60
2019-04-27T13:19:47.403Z,2.83
2019-04-27T13:22:19.255Z,1.80
2019-04-27T13:24:49.689Z,1.67
2019-04-27T13:27:20.044Z,1.45
2019-04-27T13:29:50.465Z,1.60
2019-04-27T13:32:20.850Z,1.47
2019-04-27T13:34:51.318Z,1.70
2019-04-27T13:37:29.318Z,1.80
2019-04-27T13:40:07.159Z,1.80
2019-04-27T13:42:33.388Z,2.17
2019-04-27T13:45:06.478Z,2.12
2019-04-27T13:47:47.454Z,3.10
2019-04-27T13:50:19.618Z,1.98
2019-04-27T13:52:50.005Z,2.92
2019-04-27T13:55:20.542Z,2.20
2019-04-27T13:57:53.299Z,2.77
2019-04-27T14:00:23.684Z,2.17
2019-04-27T14:02:55.660Z,2.17
2019-04-27T14:05:26.093Z,2.55
2019-04-27T14:07:56.602Z,2.50
2019-04-27T14:10:28.699Z,2.10
2019-04-27T14:12:59.345Z,2.12
2019-04-27T14:15:29.711Z,2.25
2019-04-27T14:18:01.589Z,2.22
2019-04-27T14:20:31.975Z,2.08
2019-04-27T14:23:08.277Z,2.00
2019-04-27T14:25:39.142Z,2.15
2019-04-27T14:28:09.654Z,2.30
2019-04-27T14:30:40.920Z,2.50
2019-04-27T14:33:11.346Z,2.62
2019-04-27T14:35:41.722Z,2.50
2019-04-27T14:38:12.192Z,2.58
2019-04-27T14:40:42.635Z,2.42
2019-04-27T14:43:13.113Z,2.70
2019-04-27T14:45:43.937Z,2.62
2019-04-27T14:48:14.426Z,2.50
2019-04-27T14:50:44.847Z,2.77
2019-04-27T14:53:15.289Z,3.50
2019-04-27T14:55:45.717Z,2.47
2019-04-27T14:58:16.100Z,2.83
2019-04-27T15:00:46.621Z,3.50
2019-04-27T15:03:17.097Z,2.42
2019-04-27T15:05:49.674Z,2.72
2019-04-27T15:08:20.702Z,3.02
2019-04-27T15:10:51.323Z,2.65
2019-04-27T15:13:21.708Z,2.50
2019-04-27T15:15:52.124Z,2.10
2019-04-27T15:18:24.145Z,2.33
2019-04-27T15:20:58.561Z,2.65
2019-04-27T15:23:30.846Z,7.50
2019-04-27T15:26:00.462Z,2.22
2019-04-27T15:28:32.517Z,2.10
2019-04-27T15:31:06.057Z,2.10
2019-04-27T15:33:54.813Z,2.40
2019-04-27T15:36:45.266Z,2.12
2019-04-27T15:39:34.003Z,2.65
2019-04-27T15:42:08.151Z,2.20
2019-04-27T15:44:41.077Z,2.70
2019-04-27T15:47:11.944Z,2.10
2019-04-27T15:49:49.882Z,2.65
2019-04-27T15:52:17.952Z,2.58
2019-04-27T15:54:48.580Z,3.33
2019-04-27T15:57:20.925Z,2.25
2019-04-27T15:59:51.364Z,2.60
2019-04-27T16:02:21.875Z,3.33
2019-04-27T16:04:53.527Z,2.90
2019-04-27T16:07:29.758Z,2.35
2019-04-27T16:09:59.154Z,2.00
2019-04-27T16:12:29.240Z,2.02
2019-04-27T16:15:01.346Z,3.02
2019-04-27T16:17:32.633Z,2.20
2019-04-27T16:20:03.364Z,2.30
2019-04-27T16:22:33.772Z,1.85
2019-04-27T16:25:08.318Z,5.67
2019-04-27T16:27:39.116Z,1.92
2019-04-27T16:30:17.934Z,3.08
2019-04-27T16:32:46.052Z,1.92
2019-04-27T16:35:19.471Z,2.40
2019-04-27T16:37:56.362Z,2.30
2019-04-27T16:40:26.785Z,2.65
2019-04-27T16:42:58.476Z,2.50
2019-04-27T16:45:28.989Z,3.67
2019-04-27T16:47:59.845Z,3.00
2019-04-27T16:50:33.783Z,2.15
2019-04-27T16:53:04.654Z,2.40
2019-04-27T16:55:35.401Z,8.05
2019-04-27T16:58:09.648Z,2.25
2019-04-27T17:00:40.765Z,2.20
2019-04-27T17:03:12.611Z,2.30
2019-04-27T17:05:43.092Z,3.37
2019-04-27T17:08:21.574Z,2.08
2019-04-27T17:10:45.614Z,1.98
2019-04-27T17:13:16.257Z,2.33
2019-04-27T17:16:05.985Z,3.37
2019-04-27T17:18:38.590Z,2.80
2019-04-27T17:21:18.395Z,1.95
2019-04-27T17:23:41.350Z,2.10
2019-04-27T17:26:21.086Z,1.77
2019-04-27T17:28:50.914Z,1.80
2019-04-27T17:31:22.134Z,2.00
2019-04-27T17:34:02.122Z,1.70
2019-04-27T17:36:32.686Z,1.85
2019-04-27T17:39:04.021Z,1.75
2019-04-27T17:41:36.245Z,1.40
2019-04-27T17:44:08.544Z,1.90
2019-04-27T17:46:42.649Z,2.10
2019-04-27T17:49:12.942Z,2.42
2019-04-27T17:51:48.335Z,2.62
2019-04-27T17:54:19.430Z,1.87
2019-04-27T17:56:52.384Z,1.87
2019-04-27T17:59:26.210Z,1.85
2019-04-27T18:02:00.816Z,1.85
2019-04-27T18:04:32.869Z,2.15
2019-04-27T18:07:05.264Z,1.65
2019-04-27T18:09:39.969Z,1.67
2019-04-27T18:12:14.581Z,2.00
2019-04-27T18:14:43.097Z,1.92
2019-04-27T18:17:15.186Z,2.12
2019-04-27T18:19:47.321Z,2.17
2019-04-27T18:22:17.906Z,2.00
2019-04-27T18:24:51.621Z,1.90
2019-04-27T18:27:39.645Z,1.70
2019-04-27T18:30:23.220Z,2.25
2019-04-27T18:32:59.207Z,2.60
2019-04-27T18:35:27.952Z,2.08
2019-04-27T18:38:01.629Z,2.12
2019-04-27T18:40:33.230Z,2.17
2019-04-27T18:43:06.478Z,2.40
2019-04-27T18:45:44.768Z,1.98
2019-04-27T18:48:13.882Z,5.62
2019-04-27T18:50:52.036Z,2.72
2019-04-27T18:53:24.414Z,2.62
2019-04-27T18:55:58.431Z,2.60
2019-04-27T18:58:27.374Z,3.72
2019-04-27T19:00:58.263Z,3.12
2019-04-27T19:03:31.415Z,2.37
2019-04-27T19:06:01.212Z,2.33
2019-04-27T19:08:31.863Z,2.72
2019-04-27T19:11:04.867Z,2.90
2019-04-27T19:13:34.546Z,2.22
2019-04-27T19:16:08.266Z,2.52
2019-04-27T19:18:39.873Z,2.87
2019-04-27T19:21:10.469Z,2.77
2019-04-27T19:23:41.165Z,2.50
2019-04-27T19:26:13.163Z,2.40
2019-04-27T19:28:58.379Z,2.72
2019-04-27T19:31:33.262Z,2.70
2019-04-27T19:34:03.774Z,3.02
2019-04-27T19:36:34.145Z,2.90
2019-04-27T19:39:08.666Z,2.90
2019-04-27T19:41:38.917Z,3.02
2019-04-27T19:44:11.081Z,3.02
2019-04-27T19:46:41.820Z,3.22
2019-04-27T19:49:12.404Z,3.00
2019-04-27T19:51:44.554Z,3.00
2019-04-27T19:54:15.117Z,3.15
2019-04-27T19:56:45.736Z,2.80
2019-04-27T19:59:19.294Z,3.37
2019-04-27T20:01:52.089Z,3.05
2019-04-27T20:04:30.741Z,3.40
2019-04-27T20:07:01.299Z,3.62
2019-04-27T20:09:42.307Z,5.25
2019-04-27T20:12:14.304Z,3.42
2019-04-27T20:14:58.263Z,3.22
2019-04-27T20:17:31.106Z,3.08
2019-04-27T20:20:05.068Z,3.42
2019-04-27T20:22:35.462Z,3.30
2019-04-27T20:25:07.599Z,3.65
2019-04-27T20:27:46.038Z,4.05
2019-04-27T20:30:12.185Z,3.37
2019-04-27T20:32:44.051Z,3.47
2019-04-27T20:35:14.470Z,5.28
2019-04-27T20:37:44.960Z,8.68
2019-04-27T20:40:16.799Z,4.10
2019-04-27T20:42:47.360Z,4.00
2019-04-27T20:45:17.832Z,3.40
2019-04-27T20:47:48.269Z,3.83
2019-04-27T20:50:18.734Z,3.40
2019-04-27T20:52:50.746Z,3.27
2019-04-27T20:55:21.460Z,4.03
2019-04-27T20:57:59.713Z,3.55
2019-04-27T21:00:24.301Z,3.17
2019-04-27T21:03:02.477Z,3.10
2019-04-27T21:05:41.135Z,3.37
2019-04-27T21:08:13.332Z,3.35
2019-04-27T21:10:43.707Z,3.22
2019-04-27T21:13:14.233Z,3.50
2019-04-27T21:15:44.794Z,3.70
2019-04-27T21:18:15.188Z,3.75
2019-04-27T21:20:45.577Z,3.72
2019-04-27T21:23:16.366Z,3.60
2019-04-27T21:25:51.114Z,3.70
2019-04-27T21:28:20.306Z,3.58
2019-04-27T21:30:50.881Z,3.42
2019-04-27T21:33:21.630Z,3.77
2019-04-27T21:35:52.132Z,3.90
2019-04-27T21:38:24.376Z,3.65
2019-04-27T21:40:56.582Z,3.58
2019-04-27T21:43:28.668Z,3.92
2019-04-27T21:45:59.037Z,4.05
2019-04-27T21:48:31.300Z,3.62
2019-04-27T21:51:02.699Z,4.47
2019-04-27T21:53:34.680Z,4.30
2019-04-27T21:56:06.634Z,4.00
2019-04-27T21:58:37.119Z,3.85
2019-04-27T22:01:15.022Z,4.28
2019-04-27T22:03:46.269Z,3.60
2019-04-27T22:06:16.671Z,4.08
2019-04-27T22:08:47.066Z,4.05
2019-04-27T22:11:17.588Z,4.22
2019-04-27T22:13:48.080Z,4.75
2019-04-27T22:16:18.785Z,4.83
2019-04-27T22:18:49.172Z,3.80
2019-04-27T22:21:21.435Z,4.15
2019-04-27T22:24:04.980Z,4.03
2019-04-27T22:26:35.383Z,4.20
2019-04-27T22:29:05.795Z,3.72
2019-04-27T22:31:36.167Z,3.92
2019-04-27T22:34:06.693Z,4.22
2019-04-27T22:36:39.919Z,4.40
2019-04-27T22:39:17.919Z,4.30
2019-04-27T22:41:51.619Z,3.77
2019-04-27T22:44:40.103Z,4.15
2019-04-27T22:47:11.117Z,4.53
2019-04-27T22:49:42.598Z,4.37
2019-04-27T22:52:13.164Z,3.77
2019-04-27T22:54:43.685Z,4.25
2019-04-27T22:57:16.557Z,4.12
2019-04-27T22:59:54.904Z,4.17
2019-04-27T23:02:29.268Z,4.25
2019-04-27T23:05:01.905Z,3.95
2019-04-27T23:07:32.946Z,4.12
2019-04-27T23:10:04.413Z,4.03
2019-04-27T23:12:34.847Z,4.50
2019-04-27T23:15:08.610Z,4.60
2019-04-27T23:17:51.675Z,4.85
2019-04-27T23:20:21.937Z,4.42
2019-04-27T23:22:52.585Z,4.42
2019-04-27T23:25:22.972Z,4.58
2019-04-27T23:27:53.388Z,4.60
2019-04-27T23:30:27.061Z,4.50
2019-04-27T23:32:57.497Z,4.55
2019-04-27T23:35:27.875Z,4.37
2019-04-27T23:37:58.353Z,4.15
2019-04-27T23:40:28.755Z,4.55
2019-04-27T23:42:59.316Z,4.50
2019-04-27T23:45:29.683Z,4.60
2019-04-27T23:48:00.089Z,4.03
2019-04-27T23:50:32.037Z,4.40
2019-04-27T23:53:04.004Z,4.20
2019-04-27T23:55:39.246Z,4.72
2019-04-27T23:58:09.638Z,5.10
